Terminal Aerodrome Forecast
Issued by NWS

Home | Current Version | Previous Version | Text Only | Print | Product List | Glossary On
Versions: 1 2 3 4 5 6 7 8 9 10 11 12 13 14 15 16 17 18 19 20 21 22 23 24 25 26 27 28 29 30 31 32 33 34 35 36 37
000
FTUS43 KGLD 182329
TAFMCK
TAF
KMCK 182329Z 1900/1924 13007KT P6SM FEW018
     FM190200 12006KT 6SM BR OVC018
     FM190400 12006KT 2SM BR OVC008
     FM190500 18010KT 1SM BR OVC003
     FM191300 21006KT 5SM BR BKN003
     FM191400 21005KT P6SM SCT003=

USA.gov is the U.S. government's official web portal to all federal, state and local government web resources and services.